Terminal Aerodrome Forecast
Issued by NWS Raleigh/Durham, NC

Home | Current Version | Previous Version | Text Only | Print | Product List | Glossary On
Versions: 1 2 3 4 5 6 7 8 9 10 11 12 13 14 15 16 17 18 19 20 21 22 23
000
FTUS42 KRAH 251334 AAA
TAFGSO
TAF AMD
KGSO 251334Z 2514/2612 06008KT 2SM BR OVC004
     FM251600 07005KT 6SM BR OVC009
     FM251800 08004KT P6SM OVC018
     FM252100 08004KT P6SM OVC025
     FM260800 VRB05KT 4SM BR OVC008=

USA.gov is the U.S. government's official web portal to all federal, state and local government web resources and services.